createdAt,value
2019-05-22T00:27:16.911Z,97952.47
2019-05-22T00:29:46.904Z,97959.23
2019-05-22T00:32:17.659Z,97956.77
2019-05-22T00:34:49.037Z,97954.52
2019-05-22T00:37:18.763Z,97954.16
2019-05-22T00:39:48.379Z,97957.38
2019-05-22T00:42:18.871Z,97952.36
2019-05-22T00:44:48.723Z,97956.29
2019-05-22T00:47:19.721Z,97961.39
2019-05-22T00:49:52.219Z,97957.40
2019-05-22T00:52:44.837Z,97954.86
2019-05-22T00:55:24.941Z,97952.91
2019-05-22T00:57:56.909Z,97964.59
2019-05-22T01:00:28.275Z,97958.30
2019-05-22T01:02:59.265Z,97961.43
2019-05-22T01:05:29.521Z,97957.11
2019-05-22T01:08:00.472Z,97959.62
2019-05-22T01:10:30.552Z,97964.53
2019-05-22T01:13:00.728Z,97963.02
2019-05-22T01:15:31.977Z,97961.86
2019-05-22T01:18:06.263Z,97960.34
2019-05-22T01:20:37.542Z,97962.06
2019-05-22T01:23:08.722Z,97965.25
2019-05-22T01:25:38.601Z,97967.98
2019-05-22T01:28:09.024Z,97962.45
2019-05-22T01:30:40.097Z,97966.82
2019-05-22T01:33:14.295Z,97964.39
2019-05-22T01:36:04.052Z,97967.09
2019-05-22T01:38:36.297Z,97960.53
2019-05-22T01:41:10.378Z,97963.49
2019-05-22T01:43:39.787Z,97961.36
2019-05-22T01:46:09.709Z,97956.39
2019-05-22T01:48:43.008Z,97960.25
2019-05-22T01:51:14.074Z,97966.06
2019-05-22T01:53:43.489Z,97966.48
2019-05-22T01:56:15.774Z,97964.67
2019-05-22T01:58:45.319Z,97966.34
2019-05-22T02:01:23.580Z,97966.91
2019-05-22T02:03:54.618Z,97965.52
2019-05-22T02:06:26.631Z,97970.49
2019-05-22T02:09:20.359Z,97964.83
2019-05-22T02:11:54.252Z,97964.34
2019-05-22T02:14:25.384Z,97964.13
